Time;durP1;ratioP1;P1;durP2;ratioP2;P2;SDS_P1;SDS_P2;PMS_P1;PMS_P2;Temp;Humidity;BMP_temperature;BMP_pressure;BME280_temperature;BME280_humidity;BME280_pressure;Samples;Min_cycle;Max_cycle;Signal;HPM_P1;HPM_P2
2022/01/18 00:01:19;;;;;;;0.00;0.00;;;5.90;99.90;;;;;;4965200;28;20121;-63
2022/01/18 00:03:45;;;;;;;0.00;0.00;;;6.00;99.90;;;;;;4982980;28;20261;-63
2022/01/18 00:06:11;;;;;;;0.00;0.00;;;6.70;99.90;;;;;;4982744;28;20052;-63
2022/01/18 00:08:37;;;;;;;0.00;0.00;;;6.00;99.90;;;;;;4983710;28;20042;-63
2022/01/18 00:11:03;;;;;;;0.00;0.00;;;6.10;99.90;;;;;;4981995;28;20421;-63
2022/01/18 00:13:44;;;;;;;0.00;0.00;;;6.00;99.90;;;;;;4982938;28;20073;-63
2022/01/18 00:19:06;;;;;;;0.00;0.00;;;6.00;99.90;;;;;;4952230;28;20072;-63
2022/01/18 00:21:49;;;;;;;0.00;0.00;;;6.00;99.90;;;;;;4982361;28;20050;-63
2022/01/18 00:24:15;;;;;;;0.00;0.00;;;6.00;99.90;;;;;;4982938;28;20050;-63
2022/01/18 00:26:40;;;;;;;0.00;0.00;;;6.00;99.90;;;;;;4982948;28;20112;-63
2022/01/18 00:29:10;;;;;;;0.00;0.00;;;6.00;99.90;;;;;;4994409;28;20041;-63
2022/01/18 00:39:14;;;;;;;0.00;0.00;;;5.80;99.90;;;;;;4980863;28;20093;-63
2022/01/18 00:41:40;;;;;;;0.00;0.00;;;5.80;99.90;;;;;;4982834;28;20047;-63
2022/01/18 00:44:08;;;;;;;0.00;0.00;;;5.90;99.90;;;;;;4982902;28;20085;-63
2022/01/18 00:46:34;;;;;;;0.00;0.00;;;5.80;99.90;;;;;;4980325;28;20108;-63
2022/01/18 00:49:02;;;;;;;0.00;0.00;;;5.70;99.90;;;;;;4982073;28;21188;-63
2022/01/18 00:51:30;;;;;;;0.00;0.00;;;5.70;99.90;;;;;;4981973;28;20049;-63
2022/01/18 00:53:58;;;;;;;0.00;0.00;;;5.60;99.90;;;;;;4981276;28;20117;-63
2022/01/18 00:56:30;;;;;;;0.00;0.00;;;5.60;99.90;;;;;;4981875;28;20129;-63
2022/01/18 00:58:57;;;;;;;0.00;0.00;;;5.50;99.90;;;;;;4982150;28;20475;-63
2022/01/18 01:01:25;;;;;;;0.00;0.00;;;5.50;99.90;;;;;;4982168;28;20125;-63
2022/01/18 01:03:55;;;;;;;0.00;0.00;;;5.40;99.90;;;;;;4981014;28;20598;-63
2022/01/18 01:06:20;;;;;;;0.00;0.00;;;5.40;99.90;;;;;;4981200;28;20057;-63
2022/01/18 01:08:46;;;;;;;0.00;0.00;;;5.30;99.90;;;;;;4982049;28;20057;-63
2022/01/18 01:11:12;;;;;;;0.00;0.00;;;6.60;99.90;;;;;;4981913;28;20050;-63
2022/01/18 01:13:43;;;;;;;0.00;0.00;;;5.20;99.90;;;;;;4981736;28;20046;-63
2022/01/18 01:16:37;;;;;;;0.00;0.00;;;5.20;99.90;;;;;;4982153;28;20130;-63
2022/01/18 01:33:49;;;;;;;0.00;0.00;;;4.90;99.90;;;;;;4981676;28;20050;-63
2022/01/18 01:46:19;;;;;;;0.00;0.00;;;4.70;99.90;;;;;;4981399;28;20292;-62
2022/01/18 01:48:51;;;;;;;0.00;0.00;;;4.70;99.90;;;;;;4980789;28;20294;-62
2022/01/18 01:51:17;;;;;;;0.00;0.00;;;4.70;99.90;;;;;;4980022;28;20165;-62
2022/01/18 01:53:42;;;;;;;0.00;0.00;;;4.60;99.90;;;;;;4981266;28;20124;-62
2022/01/18 01:56:08;;;;;;;0.00;0.00;;;4.60;99.90;;;;;;4980151;28;20070;-62
2022/01/18 01:58:33;;;;;;;0.00;0.00;;;4.60;99.90;;;;;;4980798;28;20782;-62
2022/01/18 02:01:05;;;;;;;0.00;0.00;;;4.60;99.90;;;;;;4980716;28;20042;-62
2022/01/18 02:03:31;;;;;;;0.00;0.00;;;4.60;99.90;;;;;;4981115;28;20420;-62
2022/01/18 02:05:57;;;;;;;0.00;0.00;;;4.60;99.90;;;;;;4980018;28;20046;-63
2022/01/18 02:08:23;;;;;;;0.00;0.00;;;4.70;99.90;;;;;;4980568;28;20053;-62
2022/01/18 02:10:49;;;;;;;0.00;0.00;;;4.70;99.90;;;;;;5008512;28;20484;-62
2022/01/18 02:13:15;;;;;;;0.00;0.00;;;4.80;99.90;;;;;;5020042;28;20041;-62
2022/01/18 02:15:58;;;;;;;0.00;0.00;;;4.80;99.90;;;;;;5020153;28;20095;-63
2022/01/18 02:23:52;;;;;;;0.00;0.00;;;5.00;99.90;;;;;;5020041;28;20107;-62
2022/01/18 02:26:17;;;;;;;0.00;0.00;;;5.00;99.90;;;;;;5019903;28;20045;-62
2022/01/18 02:28:43;;;;;;;0.00;0.00;;;5.00;99.90;;;;;;4997655;28;20077;-62
2022/01/18 02:31:09;;;;;;;0.00;0.00;;;5.10;99.90;;;;;;4983333;28;20625;-62
2022/01/18 02:33:35;;;;;;;0.00;0.00;;;5.10;99.90;;;;;;4980478;28;20046;-62
2022/01/18 02:36:00;;;;;;;0.00;0.00;;;5.30;99.90;;;;;;4980087;28;20751;-63
2022/01/18 02:38:26;;;;;;;0.00;0.00;;;5.10;99.90;;;;;;4979972;28;20050;-62
2022/01/18 02:40:51;;;;;;;0.00;0.00;;;5.10;99.90;;;;;;4980164;28;20042;-62
2022/01/18 02:46:01;;;;;;;0.00;0.00;;;5.20;99.90;;;;;;4979852;28;20042;-62
2022/01/18 02:48:27;;;;;;;0.00;0.00;;;5.20;99.90;;;;;;4980751;28;20372;-62
2022/01/18 02:50:53;;;;;;;0.00;0.00;;;5.20;99.90;;;;;;4962085;28;20047;-62
2022/01/18 02:53:19;;;;;;;0.00;0.00;;;5.20;99.90;;;;;;4980768;28;20510;-62
2022/01/18 02:55:54;;;;;;;0.00;0.00;;;5.20;99.90;;;;;;4979453;28;20125;-62
2022/01/18 02:58:30;;;;;;;0.00;0.00;;;5.30;99.90;;;;;;4980812;28;20056;-62
2022/01/18 03:03:37;;;;;;;0.00;0.00;;;5.30;99.90;;;;;;4984274;28;20065;-62
2022/01/18 03:06:04;;;;;;;0.00;0.00;;;5.40;99.90;;;;;;4965967;28;20049;-62
2022/01/18 03:08:31;;;;;;;0.00;0.00;;;5.30;99.90;;;;;;4983700;28;20042;-62
2022/01/18 03:10:57;;;;;;;0.00;0.00;;;5.40;99.90;;;;;;4984056;28;20575;-62
2022/01/18 03:13:24;;;;;;;0.00;0.00;;;5.40;99.90;;;;;;4984730;28;20050;-62
2022/01/18 03:15:49;;;;;;;0.00;0.00;;;5.40;99.90;;;;;;4984052;28;20034;-62
2022/01/18 03:18:15;;;;;;;0.00;0.00;;;5.40;99.90;;;;;;4983077;28;20053;-62
2022/01/18 03:20:41;;;;;;;0.00;0.00;;;5.40;99.90;;;;;;4983317;28;20057;-63
2022/01/18 03:23:12;;;;;;;0.00;0.00;;;5.40;99.90;;;;;;4984267;28;20034;-62
2022/01/18 03:25:50;;;;;;;0.00;0.00;;;5.50;99.90;;;;;;4966786;28;20055;-62
2022/01/18 03:28:16;;;;;;;0.00;0.00;;;6.10;99.90;;;;;;4989627;28;20389;-63
2022/01/18 03:30:44;;;;;;;0.00;0.00;;;5.50;99.90;;;;;;4989226;28;20052;-62
2022/01/18 03:33:16;;;;;;;0.00;0.00;;;5.60;99.90;;;;;;4984237;28;20038;-62
2022/01/18 03:35:43;;;;;;;0.00;0.00;;;5.50;99.90;;;;;;4983101;28;20080;-63
2022/01/18 03:38:11;;;;;;;0.00;0.00;;;5.50;99.90;;;;;;4983836;28;20053;-63
2022/01/18 03:40:37;;;;;;;0.00;0.00;;;5.60;99.90;;;;;;4983933;28;20093;-62
2022/01/18 03:43:06;;;;;;;0.00;0.00;;;5.60;99.90;;;;;;4983045;28;20597;-62
2022/01/18 03:45:40;;;;;;;0.00;0.00;;;5.60;99.90;;;;;;4983761;28;20409;-62
2022/01/18 03:48:10;;;;;;;;;;;5.60;99.90;;;;;;4984500;28;20074;-63
2022/01/18 03:50:35;;;;;;;0.00;0.00;;;5.60;99.90;;;;;;4982437;28;19925;-63
2022/01/18 03:53:01;;;;;;;0.00;0.00;;;5.60;99.90;;;;;;4983122;28;20658;-63
2022/01/18 03:55:27;;;;;;;0.00;0.00;;;5.60;99.90;;;;;;4983243;28;20054;-63
2022/01/18 03:57:53;;;;;;;0.00;0.00;;;5.60;99.90;;;;;;4983246;28;20485;-63
2022/01/18 04:00:21;;;;;;;0.00;0.00;;;5.60;99.90;;;;;;4982892;28;20046;-62
2022/01/18 04:02:48;;;;;;;0.00;0.00;;;5.60;99.90;;;;;;4983107;28;20042;-63
2022/01/18 04:05:15;;;;;;;0.00;0.00;;;5.60;99.90;;;;;;4982324;28;20511;-63
2022/01/18 04:07:41;;;;;;;0.00;0.00;;;5.60;99.90;;;;;;4965607;28;20085;-63
2022/01/18 04:10:08;;;;;;;0.00;0.00;;;5.60;99.90;;;;;;4983446;28;20118;-62
2022/01/18 04:12:37;;;;;;;0.00;0.00;;;5.60;99.90;;;;;;4983284;28;20042;-62
2022/01/18 04:15:05;;;;;;;0.00;0.00;;;5.60;99.90;;;;;;4982597;28;20046;-63
2022/01/18 04:17:50;;;;;;;0.00;0.00;;;5.60;99.90;;;;;;4964822;28;20050;-62
2022/01/18 04:26:55;;;;;;;0.00;0.00;;;5.60;99.90;;;;;;4982816;28;20046;-63
2022/01/18 04:28:44;;;;;;;0.00;0.00;;;5.60;99.90;;;;;;4988716;28;20050;-62
2022/01/18 04:31:10;;;;;;;0.00;0.00;;;6.20;99.90;;;;;;4984927;28;20053;-63
2022/01/18 04:33:37;;;;;;;0.00;0.00;;;5.70;99.90;;;;;;4982410;28;20049;-63
2022/01/18 04:36:05;;;;;;;0.00;0.00;;;5.60;99.90;;;;;;4964137;28;20053;-62
2022/01/18 04:38:31;;;;;;;0.00;0.00;;;5.60;99.90;;;;;;4982281;28;20137;-63
2022/01/18 04:40:59;;;;;;;0.00;0.00;;;5.70;99.90;;;;;;4982687;28;20039;-62
2022/01/18 04:43:45;;;;;;;0.00;0.00;;;5.60;99.90;;;;;;4981970;28;20080;-62
2022/01/18 04:48:55;;;;;;;0.00;0.00;;;5.70;99.90;;;;;;4982457;28;20651;-63
2022/01/18 04:51:21;;;;;;;0.00;0.00;;;5.60;99.90;;;;;;4981509;28;20576;-63
2022/01/18 04:53:58;;;;;;;0.00;0.00;;;5.60;99.90;;;;;;4982273;28;20038;-63
2022/01/18 04:57:51;;;;;;;0.00;0.00;;;5.60;99.90;;;;;;4982072;28;20148;-62
2022/01/18 04:59:16;;;;;;;0.00;0.00;;;5.60;99.90;;;;;;4982105;28;20058;-63
2022/01/18 05:01:45;;;;;;;0.00;0.00;;;5.70;99.90;;;;;;4981263;28;20038;-63
2022/01/18 05:04:11;;;;;;;0.00;0.00;;;5.70;99.90;;;;;;4982071;28;20054;-63
2022/01/18 05:06:37;;;;;;;0.00;0.00;;;5.60;99.90;;;;;;4981809;28;20078;-63
2022/01/18 05:09:09;;;;;;;0.00;0.00;;;5.70;99.90;;;;;;4980950;28;20500;-62
2022/01/18 05:11:52;;;;;;;0.00;0.00;;;5.70;99.90;;;;;;4982031;28;20486;-63
2022/01/18 05:16:54;;;;;;;0.00;0.00;;;5.70;99.90;;;;;;4963928;28;20821;-63
2022/01/18 05:19:42;;;;;;;0.00;0.00;;;5.70;99.90;;;;;;4981000;28;20078;-63
2022/01/18 05:24:35;;;;;;;0.00;0.00;;;5.70;99.90;;;;;;4981486;28;20112;-63
2022/01/18 05:27:02;;;;;;;0.00;0.00;;;5.70;99.90;;;;;;4982254;28;20349;-63
2022/01/18 05:29:28;;;;;;;0.00;0.00;;;5.70;99.90;;;;;;4996237;28;20049;-63
2022/01/18 05:31:55;;;;;;;0.00;0.00;;;5.70;99.90;;;;;;5000529;28;20046;-63
2022/01/18 05:34:21;;;;;;;0.00;0.00;;;5.70;99.90;;;;;;5000486;28;20116;-63
2022/01/18 05:36:47;;;;;;;0.00;0.00;;;5.70;99.90;;;;;;4983829;28;20137;-63
2022/01/18 05:39:13;;;;;;;0.00;0.00;;;5.70;99.90;;;;;;4999923;28;20069;-63
2022/01/18 05:41:42;;;;;;;0.00;0.00;;;5.70;99.90;;;;;;5001156;28;20045;-62
2022/01/18 05:44:08;;;;;;;0.00;0.00;;;5.70;99.90;;;;;;5001580;28;20183;-62
2022/01/18 05:46:34;;;;;;;0.00;0.00;;;5.90;99.90;;;;;;5000919;28;20065;-63
2022/01/18 05:49:01;;;;;;;0.00;0.00;;;5.70;99.90;;;;;;4982259;28;20585;-62
2022/01/18 05:51:31;;;;;;;0.00;0.00;;;5.70;99.90;;;;;;5000373;28;20046;-63
2022/01/18 05:53:57;;;;;;;0.00;0.00;;;5.90;99.90;;;;;;5000429;28;20107;-63
2022/01/18 05:56:23;;;;;;;0.00;0.00;;;5.80;99.90;;;;;;5000639;28;20104;-63
2022/01/18 05:58:49;;;;;;;0.00;0.00;;;5.70;99.90;;;;;;5000378;28;20132;-63
2022/01/18 06:01:27;;;;;;;0.00;0.00;;;5.70;99.90;;;;;;5000487;28;20121;-63
2022/01/18 06:09:09;;;;;;;0.00;0.00;;;5.70;99.90;;;;;;5001057;28;20054;-62
2022/01/18 06:11:35;;;;;;;0.00;0.00;;;5.70;99.90;;;;;;4999364;28;20355;-63
2022/01/18 06:14:01;;;;;;;0.00;0.00;;;5.70;99.90;;;;;;5000398;28;20057;-62
2022/01/18 06:16:27;;;;;;;0.00;0.00;;;5.70;99.90;;;;;;5000717;28;20042;-62
2022/01/18 06:18:53;;;;;;;0.00;0.00;;;5.70;99.90;;;;;;4999851;28;20078;-62
2022/01/18 06:21:19;;;;;;;0.00;0.00;;;5.70;99.90;;;;;;4998981;28;20042;-62
2022/01/18 06:23:45;;;;;;;0.00;0.00;;;5.70;99.90;;;;;;5000469;28;20038;-63
2022/01/18 06:26:15;;;;;;;0.00;0.00;;;5.70;99.90;;;;;;5000120;28;20053;-63
2022/01/18 06:28:41;;;;;;;0.00;0.00;;;5.70;99.90;;;;;;4993334;28;20081;-63
2022/01/18 06:31:07;;;;;;;0.00;0.00;;;5.50;99.90;;;;;;4983010;28;20041;-65
2022/01/18 06:33:33;;;;;;;0.00;0.00;;;5.70;99.90;;;;;;4980733;28;20517;-63
2022/01/18 06:35:59;;;;;;;0.00;0.00;;;5.70;99.90;;;;;;4979069;28;20524;-62
2022/01/18 06:38:24;;;;;;;0.00;0.00;;;5.70;99.90;;;;;;4979806;28;20741;-63
2022/01/18 06:40:50;;;;;;;0.00;0.00;;;5.70;99.90;;;;;;4980437;28;20748;-63
2022/01/18 06:43:16;;;;;;;0.00;0.00;;;5.70;99.90;;;;;;4980675;28;20118;-63
2022/01/18 06:45:42;;;;;;;0.00;0.00;;;5.70;99.90;;;;;;4980105;28;20113;-63
2022/01/18 06:48:08;;;;;;;0.00;0.00;;;5.60;99.90;;;;;;4980562;28;20042;-63
2022/01/18 06:50:34;;;;;;;0.00;0.00;;;5.70;99.90;;;;;;4979838;28;20042;-62
2022/01/18 06:53:00;;;;;;;0.00;0.00;;;5.70;99.90;;;;;;4980009;28;20113;-63
2022/01/18 06:55:26;;;;;;;0.00;0.00;;;5.70;99.90;;;;;;4980468;28;20069;-62
2022/01/18 06:57:52;;;;;;;0.00;0.00;;;5.60;99.90;;;;;;4979575;28;20564;-63
2022/01/18 07:00:19;;;;;;;0.00;0.00;;;5.70;99.90;;;;;;4962771;28;20050;-63
2022/01/18 07:02:44;;;;;;;0.00;0.00;;;5.70;99.90;;;;;;4980096;28;20079;-63
2022/01/18 07:05:13;;;;;;;0.00;0.00;;;5.70;99.90;;;;;;4980083;28;20146;-63
2022/01/18 07:07:43;;;;;;;0.00;0.00;;;5.70;99.90;;;;;;4980196;28;20568;-63
2022/01/18 07:10:10;;;;;;;0.00;0.00;;;5.60;99.90;;;;;;4980763;28;20046;-63
2022/01/18 07:12:36;;;;;;;0.00;0.00;;;5.40;99.90;;;;;;4980631;28;20034;-63
2022/01/18 07:15:06;;;;;;;0.00;0.00;;;5.60;99.90;;;;;;4979346;28;20623;-63
2022/01/18 07:17:36;;;;;;;0.00;0.00;;;5.60;99.90;;;;;;4980158;28;20050;-62
2022/01/18 07:20:04;;;;;;;0.00;0.00;;;5.60;99.90;;;;;;4979141;28;20050;-61
2022/01/18 07:22:29;;;;;;;0.00;0.00;;;5.70;99.90;;;;;;4979461;28;20042;-61
2022/01/18 07:24:57;;;;;;;0.00;0.00;;;5.60;99.90;;;;;;4979708;28;20081;-62
2022/01/18 07:27:23;;;;;;;0.00;0.00;;;5.60;99.90;;;;;;4997213;28;20050;-62
2022/01/18 07:29:49;;;;;;;0.00;0.00;;;5.60;99.90;;;;;;4988599;28;20069;-62
2022/01/18 07:32:15;;;;;;;0.00;0.00;;;5.60;99.90;;;;;;4979307;28;20073;-62
2022/01/18 07:34:49;;;;;;;0.00;0.00;;;5.60;99.90;;;;;;4980678;28;20050;-63
2022/01/18 07:37:16;;;;;;;0.00;0.00;;;5.60;99.90;;;;;;4999359;28;20065;-62
2022/01/18 07:39:42;;;;;;;0.00;0.00;;;5.60;99.90;;;;;;4999099;28;20042;-62
2022/01/18 07:42:07;;;;;;;0.00;0.00;;;5.60;99.90;;;;;;4999258;28;20103;-62
2022/01/18 07:44:33;;;;;;;0.00;0.00;;;5.60;99.90;;;;;;4998950;28;20046;-61
2022/01/18 07:46:59;;;;;;;0.00;0.00;;;5.70;99.90;;;;;;5001059;28;20049;-62
2022/01/18 07:49:25;;;;;;;0.00;0.00;;;5.70;99.90;;;;;;5001983;28;20041;-61
2022/01/18 07:51:50;;;;;;;0.00;0.00;;;5.70;99.90;;;;;;5002297;28;20050;-62
2022/01/18 07:54:17;;;;;;;0.00;0.00;;;5.70;99.90;;;;;;5002679;28;20497;-62
2022/01/18 07:56:44;;;;;;;0.00;0.00;;;5.70;99.90;;;;;;5002865;28;20038;-62
2022/01/18 07:59:10;;;;;;;0.00;0.00;;;5.60;99.90;;;;;;5002369;28;20061;-62
2022/01/18 08:01:36;;;;;;;0.00;0.00;;;5.60;99.90;;;;;;5002436;28;20046;-63
2022/01/18 08:04:01;;;;;;;0.00;0.00;;;5.70;99.90;;;;;;5001548;28;20440;-64
2022/01/18 08:06:27;;;;;;;0.00;0.00;;;5.70;99.90;;;;;;5010968;28;20046;-62
2022/01/18 08:08:53;;;;;;;0.00;0.00;;;5.70;99.90;;;;;;5010931;28;20068;-62
2022/01/18 08:11:18;;;;;;;0.00;0.00;;;5.60;99.90;;;;;;4995331;28;20965;-62
2022/01/18 08:13:48;;;;;;;0.00;0.00;;;5.60;99.90;;;;;;4995026;28;20077;-63
2022/01/18 08:16:46;;;;;;;0.00;0.00;;;5.80;99.90;;;;;;5014680;28;20045;-62
2022/01/18 08:19:08;;;;;;;0.00;0.00;;;5.70;99.90;;;;;;5021737;28;20110;-64
2022/01/18 08:21:34;;;;;;;0.00;0.00;;;5.70;99.90;;;;;;5021781;28;20037;-62
2022/01/18 08:24:00;;;;;;;0.00;0.00;;;5.70;99.90;;;;;;5021471;28;20048;-63
2022/01/18 08:26:25;;;;;;;0.00;0.00;;;5.70;99.90;;;;;;5004190;28;20064;-62
2022/01/18 08:28:51;;;;;;;0.00;0.00;;;5.70;99.90;;;;;;4998606;28;20077;-64
2022/01/18 08:31:17;;;;;;;0.00;0.00;;;5.70;99.90;;;;;;4983086;28;20081;-63
2022/01/18 08:33:42;;;;;;;0.00;0.00;;;5.70;99.90;;;;;;4981854;28;20117;-63
2022/01/18 08:36:08;;;;;;;0.00;0.00;;;5.70;99.90;;;;;;4964677;28;20855;-63
2022/01/18 08:38:35;;;;;;;0.00;0.00;;;5.70;99.90;;;;;;4982441;28;20073;-63
2022/01/18 08:41:02;;;;;;;0.00;0.00;;;6.20;99.90;;;;;;4982115;28;20496;-63
2022/01/18 08:43:31;;;;;;;0.00;0.00;;;6.50;99.90;;;;;;4981423;28;20047;-63
2022/01/18 08:46:00;;;;;;;0.00;0.00;;;5.80;99.90;;;;;;4981816;28;20140;-64
2022/01/18 08:48:26;;;;;;;0.00;0.00;;;5.80;99.90;;;;;;4964367;28;20046;-65
2022/01/18 08:50:52;;;;;;;0.00;0.00;;;5.80;99.90;;;;;;4980299;28;20046;-65
2022/01/18 08:53:18;;;;;;;0.00;0.00;;;5.80;99.90;;;;;;4981625;28;20141;-65
2022/01/18 08:55:44;;;;;;;0.00;0.00;;;6.20;99.90;;;;;;4981402;28;20026;-65
2022/01/18 08:58:09;;;;;;;0.00;0.00;;;5.80;99.90;;;;;;4981457;28;20124;-65
2022/01/18 09:00:35;;;;;;;0.00;0.00;;;5.90;99.90;;;;;;4981052;28;20050;-65
2022/01/18 09:03:02;;;;;;;0.00;0.00;;;5.90;99.90;;;;;;4981518;28;20050;-65
2022/01/18 09:05:28;;;;;;;0.00;0.00;;;5.90;99.90;;;;;;4981642;28;20052;-65
2022/01/18 09:07:55;;;;;;;0.00;0.00;;;5.90;99.90;;;;;;4981344;28;20050;-65
2022/01/18 09:10:23;;;;;;;0.00;0.00;;;6.00;99.90;;;;;;4993803;28;20546;-65
2022/01/18 09:12:49;;;;;;;0.00;0.00;;;6.30;99.90;;;;;;5000312;28;20121;-65
2022/01/18 09:15:15;;;;;;;0.00;0.00;;;6.00;99.90;;;;;;5000606;28;20132;-66
2022/01/18 09:17:41;;;;;;;0.00;0.00;;;6.00;99.90;;;;;;5000398;28;20100;-64
2022/01/18 09:20:10;;;;;;;0.00;0.00;;;6.10;99.90;;;;;;4999800;28;20881;-65
2022/01/18 09:22:38;;;;;;;0.00;0.00;;;6.10;99.90;;;;;;5001165;28;20046;-65
2022/01/18 09:25:08;;;;;;;0.00;0.00;;;6.20;99.90;;;;;;4999981;28;20054;-64
2022/01/18 09:27:34;;;;;;;0.00;0.00;;;6.20;99.90;;;;;;4996129;28;20283;-65
2022/01/18 09:30:00;;;;;;;0.00;0.00;;;6.20;99.90;;;;;;4989038;28;20543;-65
2022/01/18 09:32:25;;;;;;;0.00;0.00;;;6.30;99.90;;;;;;4981142;28;20137;-65
2022/01/18 09:34:52;;;;;;;0.00;0.00;;;6.30;99.90;;;;;;4992132;28;20646;-64
2022/01/18 09:37:18;;;;;;;0.00;0.00;;;6.30;99.90;;;;;;4998955;28;20049;-64
2022/01/18 09:39:43;;;;;;;0.00;0.00;;;6.30;99.90;;;;;;5000386;28;20049;-63
2022/01/18 09:42:11;;;;;;;0.00;0.00;;;6.30;99.90;;;;;;5000332;28;20088;-65
2022/01/18 09:44:37;;;;;;;0.00;0.00;;;6.30;99.90;;;;;;5000895;28;20443;-64
2022/01/18 09:47:04;;;;;;;0.00;0.00;;;5.80;99.90;;;;;;4999494;28;20103;-63
2022/01/18 09:49:31;;;;;;;0.00;0.00;;;6.40;99.90;;;;;;5000135;28;20044;-64
2022/01/18 09:51:57;;;;;;;0.00;0.00;;;6.40;99.90;;;;;;4999883;28;20099;-65
2022/01/18 09:54:23;;;;;;;0.10;0.10;;;6.40;99.90;;;;;;5000320;28;20037;-64
2022/01/18 09:56:48;;;;;;;0.00;0.00;;;7.10;99.90;;;;;;4998860;28;20034;-64
2022/01/18 09:59:14;;;;;;;0.00;0.00;;;6.40;99.90;;;;;;5000444;28;20081;-64
2022/01/18 10:01:40;;;;;;;0.00;0.00;;;6.40;99.90;;;;;;5000261;28;20053;-65
2022/01/18 10:04:17;;;;;;;0.00;0.00;;;6.40;99.90;;;;;;4999867;28;20053;-64
2022/01/18 10:06:45;;;;;;;0.00;0.00;;;6.40;99.90;;;;;;4999922;28;20800;-64
2022/01/18 10:09:16;;;;;;;0.00;0.00;;;6.50;99.90;;;;;;5000153;28;20148;-64
2022/01/18 10:12:15;;;;;;;0.00;0.00;;;6.50;99.90;;;;;;4999740;28;20049;-63
2022/01/18 10:14:53;;;;;;;0.00;0.00;;;6.50;99.90;;;;;;4999824;28;20053;-64
2022/01/18 10:17:34;;;;;;;0.00;0.00;;;6.50;99.90;;;;;;4996683;28;20046;-64
2022/01/18 10:20:06;;;;;;;0.30;0.10;;;6.60;99.90;;;;;;4999148;28;20042;-65
2022/01/18 10:22:43;;;;;;;0.00;0.00;;;6.60;99.90;;;;;;4999792;28;20054;-65
2022/01/18 10:25:17;;;;;;;0.00;0.00;;;6.80;99.90;;;;;;5000508;28;20505;-64
2022/01/18 10:27:45;;;;;;;0.00;0.00;;;6.60;99.90;;;;;;4995411;28;20054;-64
2022/01/18 10:30:16;;;;;;;0.00;0.00;;;7.00;99.90;;;;;;4977339;28;20039;-63
2022/01/18 10:33:00;;;;;;;0.00;0.00;;;6.60;99.90;;;;;;4980450;28;20082;-64
2022/01/18 10:35:25;;;;;;;0.00;0.00;;;6.60;99.90;;;;;;4980037;28;20371;-65
2022/01/18 10:37:51;;;;;;;0.00;0.00;;;6.60;99.90;;;;;;4962207;28;20172;-65
2022/01/18 10:40:18;;;;;;;0.00;0.00;;;6.70;99.90;;;;;;4979249;28;20088;-64
2022/01/18 10:42:47;;;;;;;0.20;0.20;;;6.70;99.90;;;;;;4980073;28;20493;-64
2022/01/18 10:45:31;;;;;;;0.20;0.20;;;6.70;99.90;;;;;;4979631;28;20046;-64
2022/01/18 10:48:11;;;;;;;0.00;0.00;;;6.90;99.90;;;;;;4980382;28;20411;-65
2022/01/18 10:50:39;;;;;;;0.00;0.00;;;6.80;99.90;;;;;;4979582;28;20050;-65
2022/01/18 10:53:21;;;;;;;0.00;0.00;;;6.80;99.90;;;;;;4979943;28;20457;-64
2022/01/18 10:55:49;;;;;;;0.00;0.00;;;6.80;99.90;;;;;;4980186;28;20049;-64
2022/01/18 10:58:21;;;;;;;0.00;0.00;;;6.80;99.90;;;;;;4981994;28;20089;-65
2022/01/18 11:00:47;;;;;;;0.00;0.00;;;6.90;99.90;;;;;;4999164;28;20452;-66
2022/01/18 11:03:13;;;;;;;0.00;0.00;;;7.10;99.90;;;;;;4999158;28;20053;-64
2022/01/18 11:05:43;;;;;;;0.00;0.00;;;7.10;99.90;;;;;;4981585;28;20391;-64
2022/01/18 11:08:10;;;;;;;0.00;0.00;;;7.10;99.90;;;;;;4982275;28;20100;-67
2022/01/18 11:10:43;;;;;;;0.00;0.00;;;7.20;99.90;;;;;;4999828;28;20390;-66
2022/01/18 11:13:17;;;;;;;0.10;0.10;;;7.10;99.90;;;;;;4981747;28;20042;-66
2022/01/18 11:15:48;;;;;;;;;;;7.00;99.90;;;;;;4999810;28;20483;-65
2022/01/18 11:18:29;;;;;;;0.00;0.00;;;7.00;99.90;;;;;;4999727;28;19925;-66
2022/01/18 11:20:56;;;;;;;0.00;0.00;;;7.00;99.90;;;;;;4999443;28;20037;-64
2022/01/18 11:23:25;;;;;;;0.00;0.00;;;7.00;99.90;;;;;;5003476;28;20050;-64
2022/01/18 11:25:52;;;;;;;0.00;0.00;;;7.10;99.90;;;;;;5003032;28;20105;-64
2022/01/18 11:28:18;;;;;;;0.00;0.00;;;7.10;99.90;;;;;;4995980;28;20042;-63
2022/01/18 11:30:47;;;;;;;0.00;0.00;;;7.10;99.90;;;;;;5003103;28;20096;-64
2022/01/18 11:33:20;;;;;;;0.00;0.00;;;7.10;99.90;;;;;;5003032;28;20042;-63
2022/01/18 11:35:58;;;;;;;0.00;0.00;;;7.10;99.90;;;;;;4985021;28;20037;-64
2022/01/18 11:38:39;;;;;;;0.00;0.00;;;7.20;99.90;;;;;;4985591;28;20045;-64
2022/01/18 11:41:06;;;;;;;0.00;0.00;;;7.20;99.90;;;;;;5002638;28;20108;-62
2022/01/18 11:43:39;;;;;;;0.00;0.00;;;7.10;99.90;;;;;;5003208;28;20073;-62
2022/01/18 11:46:34;;;;;;;0.00;0.00;;;7.10;99.90;;;;;;5002942;28;20197;-62
2022/01/18 11:49:07;;;;;;;0.00;0.00;;;7.10;99.90;;;;;;5000023;28;20054;-62
2022/01/18 11:51:58;;;;;;;0.00;0.00;;;7.00;99.90;;;;;;5002885;28;20042;-62
2022/01/18 11:54:31;;;;;;;0.00;0.00;;;7.30;99.90;;;;;;5002608;28;20044;-62
2022/01/18 11:57:02;;;;;;;0.00;0.00;;;7.00;99.90;;;;;;5002523;28;20077;-62
2022/01/18 11:59:39;;;;;;;0.00;0.00;;;7.10;99.90;;;;;;5001941;28;20129;-62
2022/01/18 12:02:06;;;;;;;0.00;0.00;;;7.10;99.90;;;;;;5002925;28;20511;-62
2022/01/18 12:04:51;;;;;;;0.00;0.00;;;7.10;99.90;;;;;;5002186;28;20065;-62
2022/01/18 12:07:36;;;;;;;;;;;7.10;99.90;;;;;;5003318;28;20050;-62
2022/01/18 12:10:06;;;;;;;0.00;0.00;;;7.10;99.90;;;;;;5002020;28;20407;-62
2022/01/18 12:12:41;;;;;;;0.00;0.00;;;7.00;99.90;;;;;;5001830;28;20037;-62
2022/01/18 12:15:15;;;;;;;0.35;0.35;;;7.10;99.90;;;;;;4985064;28;20034;-62
2022/01/18 12:17:57;;;;;;;0.05;0.05;;;7.10;99.90;;;;;;5001957;28;20049;-62
2022/01/18 12:20:50;;;;;;;0.00;0.00;;;7.00;99.90;;;;;;4997967;28;20045;-63
2022/01/18 12:23:18;;;;;;;0.00;0.00;;;7.00;99.90;;;;;;4994653;28;20062;-62
2022/01/18 12:25:57;;;;;;;0.00;0.00;;;7.10;99.90;;;;;;5002059;28;20450;-63
2022/01/18 12:34:32;;;;;;;0.00;0.00;;;7.00;99.90;;;;;;4981927;28;20149;-64
2022/01/18 12:37:19;;;;;;;0.00;0.00;;;7.00;99.90;;;;;;4982186;28;20050;-63
2022/01/18 12:39:55;;;;;;;2.63;1.02;;;6.90;99.90;;;;;;4982130;28;20054;-64
2022/01/18 12:45:01;;;;;;;0.00;0.00;;;6.90;99.90;;;;;;4982339;28;20054;-62
2022/01/18 12:47:27;;;;;;;0.00;0.00;;;6.90;99.90;;;;;;4982707;28;20062;-63
2022/01/18 12:49:53;;;;;;;0.10;0.10;;;7.50;99.90;;;;;;4980290;28;20050;-63
2022/01/18 12:52:18;;;;;;;0.00;0.00;;;6.80;99.90;;;;;;4981808;28;20072;-61
2022/01/18 12:54:47;;;;;;;0.00;0.00;;;6.80;99.90;;;;;;4982207;28;20046;-64
2022/01/18 12:57:13;;;;;;;0.00;0.00;;;6.70;99.90;;;;;;4982047;28;20038;-63
2022/01/18 12:59:57;;;;;;;0.00;0.00;;;6.80;99.90;;;;;;4982394;28;20517;-63
2022/01/18 13:02:23;;;;;;;0.00;0.00;;;6.80;99.90;;;;;;4982718;28;20054;-63
2022/01/18 13:05:15;;;;;;;0.00;0.00;;;6.70;99.90;;;;;;4980253;28;20101;-63
2022/01/18 13:07:53;;;;;;;0.00;0.00;;;6.80;99.90;;;;;;4977391;28;20066;-65
2022/01/18 13:10:19;;;;;;;0.00;0.00;;;6.70;99.90;;;;;;4981247;28;20046;-63
2022/01/18 13:12:46;;;;;;;0.00;0.00;;;6.70;99.90;;;;;;4980558;28;20064;-63
2022/01/18 13:15:21;;;;;;;0.00;0.00;;;6.70;99.90;;;;;;4980935;28;20049;-63
2022/01/18 13:23:18;;;;;;;0.10;0.10;;;6.70;99.90;;;;;;4980727;28;20081;-61
2022/01/18 13:25:56;;;;;;;0.30;0.30;;;7.50;99.90;;;;;;4980094;28;20387;-63
2022/01/18 13:28:42;;;;;;;0.10;0.10;;;6.70;99.90;;;;;;4986833;28;20053;-63
2022/01/18 13:31:15;;;;;;;0.00;0.00;;;6.70;99.90;;;;;;4981455;28;20047;-63
2022/01/18 13:33:57;;;;;;;0.00;0.00;;;6.70;99.90;;;;;;4962123;28;20111;-63
2022/01/18 13:36:24;;;;;;;0.00;0.00;;;6.60;99.90;;;;;;4980099;28;20057;-62
2022/01/18 13:38:51;;;;;;;0.00;0.00;;;6.70;99.90;;;;;;4980567;28;20061;-62
2022/01/18 13:41:20;;;;;;;0.00;0.00;;;6.70;99.90;;;;;;4980283;28;20174;-60
2022/01/18 13:43:47;;;;;;;0.00;0.00;;;6.60;99.90;;;;;;4979808;28;20158;-62
2022/01/18 13:46:26;;;;;;;0.00;0.00;;;6.60;99.90;;;;;;4980240;28;20053;-62
2022/01/18 13:49:09;;;;;;;0.10;0.10;;;6.90;99.90;;;;;;4979674;28;20039;-63
2022/01/18 13:51:35;;;;;;;0.00;0.00;;;5.70;99.90;;;;;;4979587;28;20038;-62
2022/01/18 13:54:08;;;;;;;0.10;0.10;;;6.60;99.90;;;;;;4980608;28;20461;-62
2022/01/18 13:56:45;;;;;;;0.00;0.00;;;6.90;99.90;;;;;;4963087;28;20046;-62
2022/01/18 13:59:11;;;;;;;0.00;0.00;;;6.60;99.90;;;;;;4961997;28;20054;-62
2022/01/18 14:01:41;;;;;;;0.00;0.00;;;6.60;99.90;;;;;;4980787;28;20042;-62
2022/01/18 14:05:48;;;;;;;0.00;0.00;;;6.60;99.90;;;;;;5102378;27;21687;-63
2022/01/18 14:08:13;;;;;;;0.00;0.00;;;6.50;99.90;;;;;;5082277;28;20044;-62
2022/01/18 14:10:39;;;;;;;0.00;0.00;;;6.50;99.90;;;;;;5082372;28;20043;-62
2022/01/18 14:13:05;;;;;;;0.00;0.00;;;7.10;99.90;;;;;;5081916;28;20048;-62
2022/01/18 14:15:38;;;;;;;1.08;0.35;;;6.50;99.90;;;;;;5081729;28;20204;-62
2022/01/18 14:18:05;;;;;;;0.00;0.00;;;6.50;99.90;;;;;;5081314;28;20040;-62
2022/01/18 14:20:32;;;;;;;0.00;0.00;;;6.60;99.90;;;;;;5081521;28;20055;-62
2022/01/18 14:22:59;;;;;;;0.00;0.00;;;6.60;99.90;;;;;;5081426;28;20053;-62
2022/01/18 14:25:32;;;;;;;0.00;0.00;;;6.60;99.90;;;;;;5082593;28;20503;-62
2022/01/18 14:28:12;;;;;;;0.00;0.00;;;6.50;99.90;;;;;;5082225;28;20043;-62
2022/01/18 14:30:42;;;;;;;0.00;0.00;;;6.60;99.90;;;;;;5081324;28;22723;-62